sensor_id;sensor_type;location;lat;lon;timestamp;P1;durP1;ratioP1;P2;durP2;ratioP2
41629;SDS011;27322;49.488;8.480;2023-04-12T00:02:22;7.15;;;1.95;;
41629;SDS011;27322;49.488;8.480;2023-04-12T00:04:48;7.18;;;2.05;;
41629;SDS011;27322;49.488;8.480;2023-04-12T00:07:19;5.68;;;1.65;;
41629;SDS011;27322;49.488;8.480;2023-04-12T00:09:46;10.23;;;2.22;;
41629;SDS011;27322;49.488;8.480;2023-04-12T00:12:11;6.45;;;2.40;;
41629;SDS011;27322;49.488;8.480;2023-04-12T00:14:37;6.22;;;2.35;;
41629;SDS011;27322;49.488;8.480;2023-04-12T00:17:02;6.20;;;2.15;;
41629;SDS011;27322;49.488;8.480;2023-04-12T00:19:28;7.07;;;2.20;;
41629;SDS011;27322;49.488;8.480;2023-04-12T00:21:55;5.32;;;2.10;;
41629;SDS011;27322;49.488;8.480;2023-04-12T00:24:20;7.93;;;2.33;;
41629;SDS011;27322;49.488;8.480;2023-04-12T00:26:46;8.93;;;2.55;;
41629;SDS011;27322;49.488;8.480;2023-04-12T00:29:12;8.45;;;2.22;;
41629;SDS011;27322;49.488;8.480;2023-04-12T00:31:37;9.60;;;2.17;;
41629;SDS011;27322;49.488;8.480;2023-04-12T00:34:03;8.02;;;2.65;;
41629;SDS011;27322;49.488;8.480;2023-04-12T00:36:28;6.90;;;2.30;;
41629;SDS011;27322;49.488;8.480;2023-04-12T00:38:54;7.57;;;2.20;;
41629;SDS011;27322;49.488;8.480;2023-04-12T00:41:20;7.53;;;2.17;;
41629;SDS011;27322;49.488;8.480;2023-04-12T00:43:48;8.75;;;2.53;;
41629;SDS011;27322;49.488;8.480;2023-04-12T00:46:14;7.10;;;2.33;;
41629;SDS011;27322;49.488;8.480;2023-04-12T00:48:41;6.88;;;2.30;;
41629;SDS011;27322;49.488;8.480;2023-04-12T00:51:08;8.55;;;1.92;;
41629;SDS011;27322;49.488;8.480;2023-04-12T00:53:34;8.70;;;2.50;;
41629;SDS011;27322;49.488;8.480;2023-04-12T00:56:02;6.68;;;2.00;;
41629;SDS011;27322;49.488;8.480;2023-04-12T00:58:28;7.13;;;1.95;;
41629;SDS011;27322;49.488;8.480;2023-04-12T01:00:55;8.73;;;1.95;;
41629;SDS011;27322;49.488;8.480;2023-04-12T01:03:21;6.72;;;1.73;;
41629;SDS011;27322;49.488;8.480;2023-04-12T01:08:38;4.18;;;1.50;;
41629;SDS011;27322;49.488;8.480;2023-04-12T01:11:19;7.20;;;1.67;;
41629;SDS011;27322;49.488;8.480;2023-04-12T01:16:41;6.28;;;1.75;;
41629;SDS011;27322;49.488;8.480;2023-04-12T01:27:58;6.90;;;2.17;;
41629;SDS011;27322;49.488;8.480;2023-04-12T01:30:27;5.10;;;2.03;;
41629;SDS011;27322;49.488;8.480;2023-04-12T01:32:54;6.60;;;1.95;;
41629;SDS011;27322;49.488;8.480;2023-04-12T01:35:21;6.13;;;1.85;;
41629;SDS011;27322;49.488;8.480;2023-04-12T01:37:51;4.75;;;1.80;;
41629;SDS011;27322;49.488;8.480;2023-04-12T01:40:17;6.72;;;1.90;;
41629;SDS011;27322;49.488;8.480;2023-04-12T01:42:45;6.07;;;1.83;;
41629;SDS011;27322;49.488;8.480;2023-04-12T01:45:10;6.30;;;1.95;;
41629;SDS011;27322;49.488;8.480;2023-04-12T01:47:36;6.63;;;1.80;;
41629;SDS011;27322;49.488;8.480;2023-04-12T01:52:51;5.18;;;1.70;;
41629;SDS011;27322;49.488;8.480;2023-04-12T01:55:25;5.18;;;1.63;;
41629;SDS011;27322;49.488;8.480;2023-04-12T01:57:55;6.32;;;1.60;;
41629;SDS011;27322;49.488;8.480;2023-04-12T02:00:21;4.35;;;1.20;;
41629;SDS011;27322;49.488;8.480;2023-04-12T02:02:49;5.35;;;1.67;;
41629;SDS011;27322;49.488;8.480;2023-04-12T02:05:14;5.55;;;1.60;;
41629;SDS011;27322;49.488;8.480;2023-04-12T02:07:40;6.55;;;1.42;;
41629;SDS011;27322;49.488;8.480;2023-04-12T02:10:08;5.53;;;1.40;;
41629;SDS011;27322;49.488;8.480;2023-04-12T02:12:40;4.60;;;1.42;;
41629;SDS011;27322;49.488;8.480;2023-04-12T02:15:06;5.35;;;1.55;;
41629;SDS011;27322;49.488;8.480;2023-04-12T02:17:35;7.30;;;1.80;;
41629;SDS011;27322;49.488;8.480;2023-04-12T02:20:02;8.55;;;1.70;;
41629;SDS011;27322;49.488;8.480;2023-04-12T02:22:31;4.03;;;1.30;;
41629;SDS011;27322;49.488;8.480;2023-04-12T02:24:57;4.15;;;1.30;;
41629;SDS011;27322;49.488;8.480;2023-04-12T02:27:23;6.93;;;1.50;;
41629;SDS011;27322;49.488;8.480;2023-04-12T02:29:50;5.72;;;1.77;;
41629;SDS011;27322;49.488;8.480;2023-04-12T02:32:15;5.63;;;1.55;;
41629;SDS011;27322;49.488;8.480;2023-04-12T02:34:41;6.15;;;1.95;;
41629;SDS011;27322;49.488;8.480;2023-04-12T02:37:08;8.05;;;2.30;;
41629;SDS011;27322;49.488;8.480;2023-04-12T02:39:34;6.15;;;2.20;;
41629;SDS011;27322;49.488;8.480;2023-04-12T02:42:01;9.32;;;2.72;;
41629;SDS011;27322;49.488;8.480;2023-04-12T02:44:29;7.45;;;2.60;;
41629;SDS011;27322;49.488;8.480;2023-04-12T02:46:55;8.98;;;2.80;;
41629;SDS011;27322;49.488;8.480;2023-04-12T02:49:20;7.85;;;3.00;;
41629;SDS011;27322;49.488;8.480;2023-04-12T02:51:46;8.60;;;2.88;;
41629;SDS011;27322;49.488;8.480;2023-04-12T02:54:12;8.85;;;3.00;;
41629;SDS011;27322;49.488;8.480;2023-04-12T02:56:38;7.68;;;2.85;;
41629;SDS011;27322;49.488;8.480;2023-04-12T02:59:03;7.85;;;2.83;;
41629;SDS011;27322;49.488;8.480;2023-04-12T03:01:30;8.02;;;2.95;;
41629;SDS011;27322;49.488;8.480;2023-04-12T03:03:57;8.02;;;2.95;;
41629;SDS011;27322;49.488;8.480;2023-04-12T03:06:23;7.13;;;2.97;;
41629;SDS011;27322;49.488;8.480;2023-04-12T03:08:49;6.50;;;2.58;;
41629;SDS011;27322;49.488;8.480;2023-04-12T03:11:14;6.53;;;2.60;;
41629;SDS011;27322;49.488;8.480;2023-04-12T03:13:40;7.85;;;2.50;;
41629;SDS011;27322;49.488;8.480;2023-04-12T03:16:19;7.70;;;2.47;;
41629;SDS011;27322;49.488;8.480;2023-04-12T03:18:47;5.15;;;2.10;;
41629;SDS011;27322;49.488;8.480;2023-04-12T03:21:14;6.85;;;2.17;;
41629;SDS011;27322;49.488;8.480;2023-04-12T03:23:40;5.25;;;1.88;;
41629;SDS011;27322;49.488;8.480;2023-04-12T03:26:06;4.20;;;1.80;;
41629;SDS011;27322;49.488;8.480;2023-04-12T03:28:31;5.00;;;2.03;;
41629;SDS011;27322;49.488;8.480;2023-04-12T03:30:57;5.63;;;1.77;;
41629;SDS011;27322;49.488;8.480;2023-04-12T03:33:23;4.82;;;1.92;;
41629;SDS011;27322;49.488;8.480;2023-04-12T03:35:48;5.43;;;1.80;;
41629;SDS011;27322;49.488;8.480;2023-04-12T03:38:14;5.10;;;1.63;;
41629;SDS011;27322;49.488;8.480;2023-04-12T03:40:40;6.22;;;1.80;;
41629;SDS011;27322;49.488;8.480;2023-04-12T03:43:06;4.88;;;1.55;;
41629;SDS011;27322;49.488;8.480;2023-04-12T03:45:31;8.75;;;1.90;;
41629;SDS011;27322;49.488;8.480;2023-04-12T03:47:57;5.72;;;1.83;;
41629;SDS011;27322;49.488;8.480;2023-04-12T03:50:22;5.65;;;1.60;;
41629;SDS011;27322;49.488;8.480;2023-04-12T03:52:48;6.10;;;1.55;;
41629;SDS011;27322;49.488;8.480;2023-04-12T03:55:14;3.47;;;1.48;;
41629;SDS011;27322;49.488;8.480;2023-04-12T03:57:42;4.97;;;1.70;;
41629;SDS011;27322;49.488;8.480;2023-04-12T04:00:08;4.13;;;1.40;;
41629;SDS011;27322;49.488;8.480;2023-04-12T04:02:34;5.18;;;1.40;;
41629;SDS011;27322;49.488;8.480;2023-04-12T04:05:00;5.05;;;1.25;;
41629;SDS011;27322;49.488;8.480;2023-04-12T04:07:26;3.22;;;1.38;;
41629;SDS011;27322;49.488;8.480;2023-04-12T04:09:53;4.65;;;1.35;;
41629;SDS011;27322;49.488;8.480;2023-04-12T04:12:19;5.18;;;1.35;;
41629;SDS011;27322;49.488;8.480;2023-04-12T04:14:44;3.50;;;1.10;;
41629;SDS011;27322;49.488;8.480;2023-04-12T04:17:10;6.90;;;1.20;;
41629;SDS011;27322;49.488;8.480;2023-04-12T04:19:36;4.72;;;1.20;;
41629;SDS011;27322;49.488;8.480;2023-04-12T04:22:02;4.32;;;1.20;;
41629;SDS011;27322;49.488;8.480;2023-04-12T04:24:28;3.63;;;1.33;;
41629;SDS011;27322;49.488;8.480;2023-04-12T04:26:54;4.72;;;1.35;;
41629;SDS011;27322;49.488;8.480;2023-04-12T04:29:19;3.78;;;1.33;;
41629;SDS011;27322;49.488;8.480;2023-04-12T04:31:45;3.53;;;1.20;;
41629;SDS011;27322;49.488;8.480;2023-04-12T04:34:11;6.32;;;1.40;;
41629;SDS011;27322;49.488;8.480;2023-04-12T04:36:37;3.85;;;1.42;;
41629;SDS011;27322;49.488;8.480;2023-04-12T04:39:05;2.78;;;1.02;;
41629;SDS011;27322;49.488;8.480;2023-04-12T04:41:31;5.15;;;1.27;;
41629;SDS011;27322;49.488;8.480;2023-04-12T04:43:58;4.05;;;1.25;;
41629;SDS011;27322;49.488;8.480;2023-04-12T04:46:25;2.50;;;0.93;;
41629;SDS011;27322;49.488;8.480;2023-04-12T04:48:54;5.60;;;1.30;;
41629;SDS011;27322;49.488;8.480;2023-04-12T04:51:20;4.65;;;1.40;;
41629;SDS011;27322;49.488;8.480;2023-04-12T04:53:46;5.68;;;1.30;;
41629;SDS011;27322;49.488;8.480;2023-04-12T04:56:11;4.50;;;1.30;;
41629;SDS011;27322;49.488;8.480;2023-04-12T04:58:37;3.38;;;1.25;;
41629;SDS011;27322;49.488;8.480;2023-04-12T05:01:03;3.88;;;1.20;;
41629;SDS011;27322;49.488;8.480;2023-04-12T05:03:29;6.50;;;1.40;;
41629;SDS011;27322;49.488;8.480;2023-04-12T05:05:57;3.55;;;1.40;;
41629;SDS011;27322;49.488;8.480;2023-04-12T05:08:24;6.70;;;1.30;;
41629;SDS011;27322;49.488;8.480;2023-04-12T05:10:53;3.90;;;1.30;;
41629;SDS011;27322;49.488;8.480;2023-04-12T05:13:20;4.32;;;1.40;;
41629;SDS011;27322;49.488;8.480;2023-04-12T05:15:46;4.03;;;1.33;;
41629;SDS011;27322;49.488;8.480;2023-04-12T05:18:12;4.63;;;1.55;;
41629;SDS011;27322;49.488;8.480;2023-04-12T05:20:38;5.53;;;2.22;;
41629;SDS011;27322;49.488;8.480;2023-04-12T05:23:04;4.38;;;1.80;;
41629;SDS011;27322;49.488;8.480;2023-04-12T05:25:30;6.28;;;1.65;;
41629;SDS011;27322;49.488;8.480;2023-04-12T05:27:57;5.90;;;2.00;;
41629;SDS011;27322;49.488;8.480;2023-04-12T05:30:22;4.78;;;1.80;;
41629;SDS011;27322;49.488;8.480;2023-04-12T05:32:48;4.18;;;1.85;;
41629;SDS011;27322;49.488;8.480;2023-04-12T05:35:14;4.57;;;1.70;;
41629;SDS011;27322;49.488;8.480;2023-04-12T05:37:40;7.00;;;2.00;;
41629;SDS011;27322;49.488;8.480;2023-04-12T05:40:05;5.47;;;1.70;;
41629;SDS011;27322;49.488;8.480;2023-04-12T05:42:33;6.18;;;1.60;;
41629;SDS011;27322;49.488;8.480;2023-04-12T05:45:00;3.80;;;1.40;;
41629;SDS011;27322;49.488;8.480;2023-04-12T05:47:27;4.32;;;1.77;;
41629;SDS011;27322;49.488;8.480;2023-04-12T05:49:53;5.28;;;1.52;;
41629;SDS011;27322;49.488;8.480;2023-04-12T05:52:18;5.78;;;1.80;;
41629;SDS011;27322;49.488;8.480;2023-04-12T05:54:44;5.13;;;1.50;;
41629;SDS011;27322;49.488;8.480;2023-04-12T05:57:10;4.78;;;1.70;;
41629;SDS011;27322;49.488;8.480;2023-04-12T05:59:36;4.85;;;1.65;;
41629;SDS011;27322;49.488;8.480;2023-04-12T06:02:02;5.63;;;1.90;;
41629;SDS011;27322;49.488;8.480;2023-04-12T06:04:28;4.70;;;1.63;;
41629;SDS011;27322;49.488;8.480;2023-04-12T06:06:53;6.30;;;2.30;;
41629;SDS011;27322;49.488;8.480;2023-04-12T06:09:20;4.88;;;1.77;;
41629;SDS011;27322;49.488;8.480;2023-04-12T06:11:46;4.45;;;1.70;;
41629;SDS011;27322;49.488;8.480;2023-04-12T06:14:11;4.05;;;1.60;;
41629;SDS011;27322;49.488;8.480;2023-04-12T06:16:37;6.65;;;1.90;;
41629;SDS011;27322;49.488;8.480;2023-04-12T06:19:03;7.07;;;2.10;;
41629;SDS011;27322;49.488;8.480;2023-04-12T06:21:29;6.13;;;1.70;;
41629;SDS011;27322;49.488;8.480;2023-04-12T06:23:58;6.38;;;2.08;;
41629;SDS011;27322;49.488;8.480;2023-04-12T06:26:23;7.97;;;1.73;;
41629;SDS011;27322;49.488;8.480;2023-04-12T06:28:49;5.30;;;1.98;;
41629;SDS011;27322;49.488;8.480;2023-04-12T06:31:15;5.82;;;1.75;;
41629;SDS011;27322;49.488;8.480;2023-04-12T06:33:41;5.50;;;2.03;;
41629;SDS011;27322;49.488;8.480;2023-04-12T06:36:06;5.25;;;1.80;;
41629;SDS011;27322;49.488;8.480;2023-04-12T06:38:32;4.25;;;1.52;;
41629;SDS011;27322;49.488;8.480;2023-04-12T06:40:58;5.25;;;1.92;;
41629;SDS011;27322;49.488;8.480;2023-04-12T06:43:24;4.80;;;1.80;;
41629;SDS011;27322;49.488;8.480;2023-04-12T06:45:50;4.50;;;1.63;;
41629;SDS011;27322;49.488;8.480;2023-04-12T06:48:16;6.30;;;2.00;;
41629;SDS011;27322;49.488;8.480;2023-04-12T06:50:41;4.32;;;1.85;;
41629;SDS011;27322;49.488;8.480;2023-04-12T06:53:08;5.43;;;2.05;;
41629;SDS011;27322;49.488;8.480;2023-04-12T06:55:33;5.95;;;1.60;;
41629;SDS011;27322;49.488;8.480;2023-04-12T06:57:59;4.30;;;1.70;;
41629;SDS011;27322;49.488;8.480;2023-04-12T07:00:25;4.90;;;2.10;;
41629;SDS011;27322;49.488;8.480;2023-04-12T07:02:51;6.18;;;2.03;;
41629;SDS011;27322;49.488;8.480;2023-04-12T07:05:16;4.85;;;2.15;;
41629;SDS011;27322;49.488;8.480;2023-04-12T07:07:43;4.45;;;1.90;;
41629;SDS011;27322;49.488;8.480;2023-04-12T07:10:09;6.00;;;2.20;;
41629;SDS011;27322;49.488;8.480;2023-04-12T07:12:34;7.50;;;2.13;;
41629;SDS011;27322;49.488;8.480;2023-04-12T07:15:00;5.28;;;2.30;;
41629;SDS011;27322;49.488;8.480;2023-04-12T07:17:26;6.20;;;2.50;;
41629;SDS011;27322;49.488;8.480;2023-04-12T07:19:54;6.00;;;2.10;;
41629;SDS011;27322;49.488;8.480;2023-04-12T07:22:20;5.75;;;2.10;;
41629;SDS011;27322;49.488;8.480;2023-04-12T07:24:45;5.97;;;1.85;;
41629;SDS011;27322;49.488;8.480;2023-04-12T07:27:12;6.90;;;2.22;;
41629;SDS011;27322;49.488;8.480;2023-04-12T07:29:38;6.65;;;2.08;;
41629;SDS011;27322;49.488;8.480;2023-04-12T07:32:03;6.57;;;2.15;;
41629;SDS011;27322;49.488;8.480;2023-04-12T07:34:29;6.07;;;1.90;;
41629;SDS011;27322;49.488;8.480;2023-04-12T07:36:55;5.20;;;2.20;;
41629;SDS011;27322;49.488;8.480;2023-04-12T07:39:20;5.35;;;2.03;;
41629;SDS011;27322;49.488;8.480;2023-04-12T07:41:47;7.82;;;2.05;;
41629;SDS011;27322;49.488;8.480;2023-04-12T07:44:13;4.78;;;1.55;;
41629;SDS011;27322;49.488;8.480;2023-04-12T07:46:39;5.03;;;1.80;;
41629;SDS011;27322;49.488;8.480;2023-04-12T07:49:05;4.82;;;1.55;;
41629;SDS011;27322;49.488;8.480;2023-04-12T07:51:32;4.43;;;1.65;;
41629;SDS011;27322;49.488;8.480;2023-04-12T07:53:58;5.30;;;2.00;;
41629;SDS011;27322;49.488;8.480;2023-04-12T07:56:23;5.35;;;1.60;;
41629;SDS011;27322;49.488;8.480;2023-04-12T07:58:49;5.50;;;1.83;;
41629;SDS011;27322;49.488;8.480;2023-04-12T08:01:15;4.72;;;1.83;;
41629;SDS011;27322;49.488;8.480;2023-04-12T08:03:40;5.25;;;1.73;;
41629;SDS011;27322;49.488;8.480;2023-04-12T08:06:06;4.40;;;1.67;;
41629;SDS011;27322;49.488;8.480;2023-04-12T08:08:32;8.05;;;2.25;;
41629;SDS011;27322;49.488;8.480;2023-04-12T08:10:58;4.88;;;1.70;;
41629;SDS011;27322;49.488;8.480;2023-04-12T08:13:25;4.68;;;1.98;;
41629;SDS011;27322;49.488;8.480;2023-04-12T08:15:50;6.22;;;1.75;;
41629;SDS011;27322;49.488;8.480;2023-04-12T08:18:16;4.15;;;1.65;;
41629;SDS011;27322;49.488;8.480;2023-04-12T08:20:42;5.43;;;2.10;;
41629;SDS011;27322;49.488;8.480;2023-04-12T08:23:09;4.30;;;2.08;;
41629;SDS011;27322;49.488;8.480;2023-04-12T08:25:35;5.25;;;1.90;;
41629;SDS011;27322;49.488;8.480;2023-04-12T08:28:01;4.20;;;1.92;;
41629;SDS011;27322;49.488;8.480;2023-04-12T08:30:27;4.85;;;2.17;;
41629;SDS011;27322;49.488;8.480;2023-04-12T08:32:53;6.10;;;2.40;;
41629;SDS011;27322;49.488;8.480;2023-04-12T08:35:19;4.88;;;2.13;;
41629;SDS011;27322;49.488;8.480;2023-04-12T08:37:46;4.70;;;2.17;;
41629;SDS011;27322;49.488;8.480;2023-04-12T08:40:12;7.03;;;2.63;;
41629;SDS011;27322;49.488;8.480;2023-04-12T08:42:37;7.60;;;2.90;;
41629;SDS011;27322;49.488;8.480;2023-04-12T08:45:04;5.07;;;2.20;;
41629;SDS011;27322;49.488;8.480;2023-04-12T08:47:31;5.55;;;2.47;;
41629;SDS011;27322;49.488;8.480;2023-04-12T08:49:59;9.05;;;2.00;;
41629;SDS011;27322;49.488;8.480;2023-04-12T08:52:26;8.25;;;1.92;;
41629;SDS011;27322;49.488;8.480;2023-04-12T08:54:53;5.68;;;2.03;;
41629;SDS011;27322;49.488;8.480;2023-04-12T08:57:22;5.05;;;1.90;;
41629;SDS011;27322;49.488;8.480;2023-04-12T08:59:48;6.70;;;1.95;;
41629;SDS011;27322;49.488;8.480;2023-04-12T09:02:16;4.45;;;1.70;;
41629;SDS011;27322;49.488;8.480;2023-04-12T09:04:46;4.85;;;1.75;;
41629;SDS011;27322;49.488;8.480;2023-04-12T09:07:16;7.00;;;2.13;;
41629;SDS011;27322;49.488;8.480;2023-04-12T09:09:45;5.10;;;2.30;;
41629;SDS011;27322;49.488;8.480;2023-04-12T09:12:12;7.30;;;2.10;;
41629;SDS011;27322;49.488;8.480;2023-04-12T09:14:39;5.47;;;2.00;;
41629;SDS011;27322;49.488;8.480;2023-04-12T09:17:20;3.95;;;2.00;;
41629;SDS011;27322;49.488;8.480;2023-04-12T09:19:46;6.50;;;2.33;;
41629;SDS011;27322;49.488;8.480;2023-04-12T09:22:12;4.53;;;2.00;;
41629;SDS011;27322;49.488;8.480;2023-04-12T09:24:45;5.28;;;2.28;;
41629;SDS011;27322;49.488;8.480;2023-04-12T09:27:11;5.53;;;2.13;;
41629;SDS011;27322;49.488;8.480;2023-04-12T09:29:37;6.78;;;2.30;;
41629;SDS011;27322;49.488;8.480;2023-04-12T09:32:04;5.35;;;2.05;;
41629;SDS011;27322;49.488;8.480;2023-04-12T09:34:38;7.80;;;2.30;;
41629;SDS011;27322;49.488;8.480;2023-04-12T09:37:20;5.90;;;2.40;;
41629;SDS011;27322;49.488;8.480;2023-04-12T09:39:46;5.50;;;2.50;;
41629;SDS011;27322;49.488;8.480;2023-04-12T09:42:11;7.15;;;2.58;;
41629;SDS011;27322;49.488;8.480;2023-04-12T09:44:39;8.10;;;2.90;;
41629;SDS011;27322;49.488;8.480;2023-04-12T09:47:05;7.30;;;2.35;;
41629;SDS011;27322;49.488;8.480;2023-04-12T09:49:40;5.78;;;2.25;;
41629;SDS011;27322;49.488;8.480;2023-04-12T09:52:08;7.22;;;2.38;;
41629;SDS011;27322;49.488;8.480;2023-04-12T09:54:42;6.95;;;2.80;;
41629;SDS011;27322;49.488;8.480;2023-04-12T09:57:08;7.18;;;2.65;;
41629;SDS011;27322;49.488;8.480;2023-04-12T09:59:35;7.47;;;2.83;;
41629;SDS011;27322;49.488;8.480;2023-04-12T10:02:25;9.15;;;2.90;;
41629;SDS011;27322;49.488;8.480;2023-04-12T10:04:51;8.70;;;3.40;;
41629;SDS011;27322;49.488;8.480;2023-04-12T10:07:17;6.63;;;3.08;;
41629;SDS011;27322;49.488;8.480;2023-04-12T10:09:44;6.95;;;3.15;;
41629;SDS011;27322;49.488;8.480;2023-04-12T10:12:10;7.05;;;3.13;;
41629;SDS011;27322;49.488;8.480;2023-04-12T10:14:35;5.75;;;2.80;;
41629;SDS011;27322;49.488;8.480;2023-04-12T10:17:02;8.18;;;3.53;;
41629;SDS011;27322;49.488;8.480;2023-04-12T10:19:29;7.03;;;3.15;;
41629;SDS011;27322;49.488;8.480;2023-04-12T10:21:56;7.07;;;3.00;;
41629;SDS011;27322;49.488;8.480;2023-04-12T10:24:25;8.75;;;3.28;;
41629;SDS011;27322;49.488;8.480;2023-04-12T10:26:53;5.88;;;2.70;;
41629;SDS011;27322;49.488;8.480;2023-04-12T10:32:20;10.43;;;3.50;;
41629;SDS011;27322;49.488;8.480;2023-04-12T10:34:53;6.18;;;3.15;;
41629;SDS011;27322;49.488;8.480;2023-04-12T10:37:20;12.35;;;3.92;;
41629;SDS011;27322;49.488;8.480;2023-04-12T10:39:52;7.70;;;3.10;;
41629;SDS011;27322;49.488;8.480;2023-04-12T10:44:47;9.43;;;3.53;;
41629;SDS011;27322;49.488;8.480;2023-04-12T10:47:13;6.20;;;2.92;;
41629;SDS011;27322;49.488;8.480;2023-04-12T10:49:39;9.13;;;3.03;;
41629;SDS011;27322;49.488;8.480;2023-04-12T10:54:33;9.00;;;3.17;;
41629;SDS011;27322;49.488;8.480;2023-04-12T10:56:59;7.47;;;3.10;;
41629;SDS011;27322;49.488;8.480;2023-04-12T10:59:49;8.93;;;3.08;;
41629;SDS011;27322;49.488;8.480;2023-04-12T11:02:15;7.88;;;3.05;;
41629;SDS011;27322;49.488;8.480;2023-04-12T11:07:42;5.70;;;2.47;;
41629;SDS011;27322;49.488;8.480;2023-04-12T11:10:12;6.63;;;2.90;;
41629;SDS011;27322;49.488;8.480;2023-04-12T11:12:39;7.30;;;2.55;;
41629;SDS011;27322;49.488;8.480;2023-04-12T11:15:05;9.23;;;2.90;;
41629;SDS011;27322;49.488;8.480;2023-04-12T11:17:35;5.65;;;2.17;;
41629;SDS011;27322;49.488;8.480;2023-04-12T11:20:01;7.50;;;2.40;;
41629;SDS011;27322;49.488;8.480;2023-04-12T11:22:30;4.25;;;2.15;;
41629;SDS011;27322;49.488;8.480;2023-04-12T11:24:57;29.75;;;4.90;;
41629;SDS011;27322;49.488;8.480;2023-04-12T11:27:25;9.25;;;2.88;;
41629;SDS011;27322;49.488;8.480;2023-04-12T11:29:52;7.78;;;2.40;;
41629;SDS011;27322;49.488;8.480;2023-04-12T11:32:20;8.88;;;2.50;;
41629;SDS011;27322;49.488;8.480;2023-04-12T11:34:48;5.90;;;2.50;;
41629;SDS011;27322;49.488;8.480;2023-04-12T11:37:13;5.22;;;2.30;;
41629;SDS011;27322;49.488;8.480;2023-04-12T11:39:42;5.32;;;2.25;;
41629;SDS011;27322;49.488;8.480;2023-04-12T11:42:12;6.60;;;2.42;;
41629;SDS011;27322;49.488;8.480;2023-04-12T11:44:42;5.23;;;2.10;;
41629;SDS011;27322;49.488;8.480;2023-04-12T11:47:13;8.32;;;2.70;;
41629;SDS011;27322;49.488;8.480;2023-04-12T11:49:44;5.65;;;2.35;;
41629;SDS011;27322;49.488;8.480;2023-04-12T11:52:31;5.90;;;2.17;;
41629;SDS011;27322;49.488;8.480;2023-04-12T11:55:01;5.93;;;2.47;;
41629;SDS011;27322;49.488;8.480;2023-04-12T11:57:35;7.22;;;2.40;;
41629;SDS011;27322;49.488;8.480;2023-04-12T12:00:02;5.35;;;2.28;;
41629;SDS011;27322;49.488;8.480;2023-04-12T12:02:31;8.70;;;2.35;;
41629;SDS011;27322;49.488;8.480;2023-04-12T12:04:58;5.38;;;2.03;;
41629;SDS011;27322;49.488;8.480;2023-04-12T12:07:23;5.45;;;2.10;;
41629;SDS011;27322;49.488;8.480;2023-04-12T12:09:50;5.38;;;2.10;;
41629;SDS011;27322;49.488;8.480;2023-04-12T12:12:16;8.23;;;1.95;;
41629;SDS011;27322;49.488;8.480;2023-04-12T12:14:43;5.68;;;1.98;;
41629;SDS011;27322;49.488;8.480;2023-04-12T12:17:10;5.20;;;1.98;;
41629;SDS011;27322;49.488;8.480;2023-04-12T12:19:39;4.80;;;1.80;;
41629;SDS011;27322;49.488;8.480;2023-04-12T12:22:08;7.50;;;2.58;;
41629;SDS011;27322;49.488;8.480;2023-04-12T12:24:51;5.60;;;2.10;;
41629;SDS011;27322;49.488;8.480;2023-04-12T12:27:22;3.42;;;1.70;;
41629;SDS011;27322;49.488;8.480;2023-04-12T12:29:49;5.18;;;2.00;;
41629;SDS011;27322;49.488;8.480;2023-04-12T12:32:17;4.55;;;1.50;;
41629;SDS011;27322;49.488;8.480;2023-04-12T12:34:51;5.68;;;1.98;;
41629;SDS011;27322;49.488;8.480;2023-04-12T12:37:27;6.55;;;1.77;;
41629;SDS011;27322;49.488;8.480;2023-04-12T12:42:25;5.32;;;1.65;;
41629;SDS011;27322;49.488;8.480;2023-04-12T12:44:51;5.38;;;2.00;;
41629;SDS011;27322;49.488;8.480;2023-04-12T12:47:17;5.57;;;2.05;;
41629;SDS011;27322;49.488;8.480;2023-04-12T12:49:43;4.85;;;1.95;;
41629;SDS011;27322;49.488;8.480;2023-04-12T12:52:09;5.88;;;1.80;;
41629;SDS011;27322;49.488;8.480;2023-04-12T12:54:34;4.45;;;1.95;;
41629;SDS011;27322;49.488;8.480;2023-04-12T12:57:01;5.03;;;1.77;;
41629;SDS011;27322;49.488;8.480;2023-04-12T12:59:27;4.72;;;1.65;;
41629;SDS011;27322;49.488;8.480;2023-04-12T13:01:53;4.50;;;1.67;;
41629;SDS011;27322;49.488;8.480;2023-04-12T13:04:18;4.35;;;1.55;;
41629;SDS011;27322;49.488;8.480;2023-04-12T13:06:44;5.88;;;2.10;;
41629;SDS011;27322;49.488;8.480;2023-04-12T13:09:09;5.78;;;2.10;;
41629;SDS011;27322;49.488;8.480;2023-04-12T13:11:35;8.32;;;1.88;;
41629;SDS011;27322;49.488;8.480;2023-04-12T13:14:01;4.97;;;2.10;;
41629;SDS011;27322;49.488;8.480;2023-04-12T13:16:26;5.82;;;1.75;;
41629;SDS011;27322;49.488;8.480;2023-04-12T13:18:52;6.97;;;2.10;;
41629;SDS011;27322;49.488;8.480;2023-04-12T13:21:17;4.53;;;1.98;;
41629;SDS011;27322;49.488;8.480;2023-04-12T13:23:43;5.03;;;1.90;;
41629;SDS011;27322;49.488;8.480;2023-04-12T13:26:09;6.53;;;1.80;;
41629;SDS011;27322;49.488;8.480;2023-04-12T13:28:34;6.57;;;1.98;;
41629;SDS011;27322;49.488;8.480;2023-04-12T13:31:00;5.63;;;1.77;;
41629;SDS011;27322;49.488;8.480;2023-04-12T13:33:26;4.57;;;1.83;;
41629;SDS011;27322;49.488;8.480;2023-04-12T13:35:51;4.72;;;1.88;;
41629;SDS011;27322;49.488;8.480;2023-04-12T13:38:17;6.95;;;2.30;;
41629;SDS011;27322;49.488;8.480;2023-04-12T13:40:43;8.90;;;2.30;;
41629;SDS011;27322;49.488;8.480;2023-04-12T13:43:08;5.85;;;2.40;;
41629;SDS011;27322;49.488;8.480;2023-04-12T13:45:34;6.10;;;2.50;;
41629;SDS011;27322;49.488;8.480;2023-04-12T13:48:00;5.47;;;2.38;;
41629;SDS011;27322;49.488;8.480;2023-04-12T13:50:25;6.18;;;2.22;;
41629;SDS011;27322;49.488;8.480;2023-04-12T13:52:51;7.40;;;2.60;;
41629;SDS011;27322;49.488;8.480;2023-04-12T13:55:16;4.25;;;2.20;;
41629;SDS011;27322;49.488;8.480;2023-04-12T13:57:42;4.35;;;1.88;;
41629;SDS011;27322;49.488;8.480;2023-04-12T14:00:08;6.10;;;2.28;;
41629;SDS011;27322;49.488;8.480;2023-04-12T14:02:34;6.07;;;2.10;;
41629;SDS011;27322;49.488;8.480;2023-04-12T14:05:00;5.22;;;1.75;;
41629;SDS011;27322;49.488;8.480;2023-04-12T14:07:25;4.95;;;2.20;;
41629;SDS011;27322;49.488;8.480;2023-04-12T14:09:53;5.07;;;2.05;;
41629;SDS011;27322;49.488;8.480;2023-04-12T14:12:19;5.70;;;2.10;;
41629;SDS011;27322;49.488;8.480;2023-04-12T14:14:45;4.57;;;1.65;;
41629;SDS011;27322;49.488;8.480;2023-04-12T14:17:10;3.72;;;0.90;;
41629;SDS011;27322;49.488;8.480;2023-04-12T14:19:36;2.20;;;0.82;;
41629;SDS011;27322;49.488;8.480;2023-04-12T14:22:02;2.95;;;0.80;;
41629;SDS011;27322;49.488;8.480;2023-04-12T14:24:27;2.10;;;0.68;;
41629;SDS011;27322;49.488;8.480;2023-04-12T14:26:53;1.52;;;0.60;;
41629;SDS011;27322;49.488;8.480;2023-04-12T14:29:21;2.47;;;0.63;;
41629;SDS011;27322;49.488;8.480;2023-04-12T14:31:46;1.60;;;0.50;;
41629;SDS011;27322;49.488;8.480;2023-04-12T14:34:12;2.50;;;0.60;;
41629;SDS011;27322;49.488;8.480;2023-04-12T14:36:38;2.83;;;0.70;;
41629;SDS011;27322;49.488;8.480;2023-04-12T14:39:03;3.70;;;0.73;;
41629;SDS011;27322;49.488;8.480;2023-04-12T14:41:29;3.40;;;0.90;;
41629;SDS011;27322;49.488;8.480;2023-04-12T14:43:57;2.55;;;0.70;;
41629;SDS011;27322;49.488;8.480;2023-04-12T14:46:23;3.13;;;0.77;;
41629;SDS011;27322;49.488;8.480;2023-04-12T14:48:51;1.95;;;0.80;;
41629;SDS011;27322;49.488;8.480;2023-04-12T14:51:17;1.95;;;0.80;;
41629;SDS011;27322;49.488;8.480;2023-04-12T14:53:43;2.50;;;0.75;;
41629;SDS011;27322;49.488;8.480;2023-04-12T14:56:15;3.40;;;0.68;;
41629;SDS011;27322;49.488;8.480;2023-04-12T14:58:49;2.28;;;0.70;;
41629;SDS011;27322;49.488;8.480;2023-04-12T15:01:17;3.72;;;0.70;;
41629;SDS011;27322;49.488;8.480;2023-04-12T15:03:44;1.75;;;0.50;;
41629;SDS011;27322;49.488;8.480;2023-04-12T15:06:11;4.55;;;0.90;;
41629;SDS011;27322;49.488;8.480;2023-04-12T15:08:37;4.38;;;1.13;;
41629;SDS011;27322;49.488;8.480;2023-04-12T15:11:09;2.58;;;0.75;;
41629;SDS011;27322;49.488;8.480;2023-04-12T15:13:37;2.80;;;0.57;;
41629;SDS011;27322;49.488;8.480;2023-04-12T15:16:04;1.98;;;0.40;;
41629;SDS011;27322;49.488;8.480;2023-04-12T15:18:32;1.17;;;0.40;;